createdAt,value
2023-01-26T00:01:15.717Z,38.77
2023-01-26T00:03:42.531Z,36.17
2023-01-26T00:06:11.732Z,35.90
2023-01-26T00:08:43.298Z,35.17
2023-01-26T00:11:12.804Z,36.27
2023-01-26T00:13:39.449Z,36.90
2023-01-26T00:16:09.425Z,36.07
2023-01-26T00:18:37.911Z,35.50
2023-01-26T00:21:05.107Z,34.30
2023-01-26T00:23:32.701Z,35.77
2023-01-26T00:25:59.429Z,36.13
2023-01-26T00:28:25.879Z,37.17
2023-01-26T00:30:52.411Z,36.47
2023-01-26T00:33:18.914Z,36.23
2023-01-26T00:35:54.119Z,36.50
2023-01-26T00:38:20.613Z,34.10
2023-01-26T00:40:47.080Z,34.80
2023-01-26T00:43:13.558Z,34.17
2023-01-26T00:45:40.059Z,34.77
2023-01-26T00:48:07.038Z,33.30
2023-01-26T00:50:33.782Z,33.60
2023-01-26T00:53:00.641Z,31.53
2023-01-26T00:55:32.344Z,32.87
2023-01-26T00:57:59.969Z,32.73
2023-01-26T01:00:26.810Z,32.23
2023-01-26T01:02:53.310Z,32.50
2023-01-26T01:05:19.875Z,33.13
2023-01-26T01:07:46.320Z,34.17
2023-01-26T01:10:12.923Z,34.97
2023-01-26T01:12:39.704Z,33.07
2023-01-26T01:15:06.874Z,34.70
2023-01-26T01:17:34.021Z,34.20
2023-01-26T01:20:00.466Z,35.17
2023-01-26T01:22:26.953Z,33.17
2023-01-26T01:24:53.407Z,33.80
2023-01-26T01:27:19.901Z,34.37
2023-01-26T01:29:46.343Z,34.47
2023-01-26T01:32:12.812Z,36.00
2023-01-26T01:34:39.236Z,34.87
2023-01-26T01:37:05.701Z,37.10
2023-01-26T01:39:32.138Z,33.10
2023-01-26T01:41:58.636Z,34.50
2023-01-26T01:44:26.582Z,35.70
2023-01-26T01:47:03.411Z,33.70
2023-01-26T01:49:42.391Z,34.83
2023-01-26T01:52:41.269Z,32.60
2023-01-26T01:55:12.962Z,34.70
2023-01-26T01:57:53.833Z,34.27
2023-01-26T02:00:23.008Z,31.67
2023-01-26T02:03:13.740Z,35.07
2023-01-26T02:05:55.898Z,34.30
2023-01-26T02:08:30.514Z,31.10
2023-01-26T02:11:00.005Z,31.37
2023-01-26T02:13:27.384Z,31.20
2023-01-26T02:15:54.633Z,31.60
2023-01-26T02:18:21.262Z,32.30
2023-01-26T02:20:53.441Z,33.57
2023-01-26T02:23:22.919Z,32.67
2023-01-26T02:25:49.323Z,32.70
2023-01-26T02:28:17.140Z,31.10
2023-01-26T02:30:43.654Z,32.57
2023-01-26T02:33:39.918Z,30.60
2023-01-26T02:36:08.147Z,31.73
2023-01-26T02:38:41.357Z,31.97
2023-01-26T02:41:10.818Z,32.33
2023-01-26T02:43:37.413Z,30.87
2023-01-26T02:46:04.095Z,30.83
2023-01-26T02:48:49.116Z,32.43
2023-01-26T02:51:15.596Z,28.20
2023-01-26T02:53:42.049Z,28.70
2023-01-26T02:56:08.511Z,25.70
2023-01-26T02:58:35.121Z,26.03
2023-01-26T03:01:01.668Z,25.37
2023-01-26T03:03:45.640Z,25.10
2023-01-26T03:06:12.953Z,25.33
2023-01-26T03:08:40.012Z,25.37
2023-01-26T03:11:07.956Z,24.03
2023-01-26T03:13:35.041Z,25.00
2023-01-26T03:16:06.887Z,23.30
2023-01-26T03:18:53.760Z,24.53
2023-01-26T03:21:38.787Z,24.00
2023-01-26T03:24:24.599Z,22.07
2023-01-26T03:27:09.692Z,24.37
2023-01-26T03:29:36.175Z,23.97
2023-01-26T03:32:02.656Z,22.73
2023-01-26T03:34:29.705Z,21.93
2023-01-26T03:36:56.452Z,22.80
2023-01-26T03:39:41.551Z,23.13
2023-01-26T03:42:26.599Z,21.97
2023-01-26T03:45:11.706Z,21.37
2023-01-26T03:47:56.798Z,21.63
2023-01-26T03:50:41.983Z,21.40
2023-01-26T03:53:38.339Z,22.13
2023-01-26T03:56:41.274Z,23.17
2023-01-26T03:59:08.599Z,24.00
2023-01-26T04:02:04.565Z,24.10
2023-01-26T04:04:49.501Z,24.53
2023-01-26T04:07:34.664Z,26.13
2023-01-26T04:10:01.052Z,23.67
2023-01-26T04:12:27.531Z,24.93
2023-01-26T04:15:12.579Z,24.30
2023-01-26T04:17:57.731Z,25.73
2023-01-26T04:20:42.779Z,25.57
2023-01-26T04:23:17.850Z,24.43
2023-01-26T04:25:44.325Z,24.13
2023-01-26T04:28:10.756Z,26.30
2023-01-26T04:30:37.352Z,23.20
2023-01-26T04:33:03.982Z,25.83
2023-01-26T04:35:30.526Z,24.80
2023-01-26T04:37:57.012Z,24.97
2023-01-26T04:40:23.525Z,24.83
2023-01-26T04:42:50.086Z,26.07
2023-01-26T04:45:16.518Z,25.90
2023-01-26T04:47:42.971Z,27.40
2023-01-26T04:50:10.508Z,27.70
2023-01-26T04:52:37.211Z,28.13
2023-01-26T04:55:03.850Z,27.53
2023-01-26T04:57:30.321Z,27.70
2023-01-26T04:59:56.796Z,27.83
2023-01-26T05:02:23.268Z,26.67
2023-01-26T05:04:49.722Z,25.20
2023-01-26T05:07:16.187Z,26.70
2023-01-26T05:09:42.631Z,28.03
2023-01-26T05:12:27.793Z,25.57
2023-01-26T05:14:54.224Z,25.27
2023-01-26T05:17:20.699Z,28.23
2023-01-26T05:19:47.131Z,24.27
2023-01-26T05:22:13.645Z,25.90
2023-01-26T05:24:40.077Z,26.07
2023-01-26T05:27:21.713Z,24.87
2023-01-26T05:29:49.719Z,25.30
2023-01-26T05:32:16.305Z,23.50
2023-01-26T05:34:43.152Z,26.17
2023-01-26T05:37:09.591Z,24.17
2023-01-26T05:39:36.099Z,24.73
2023-01-26T05:42:02.551Z,24.70
2023-01-26T05:44:29.805Z,26.37
2023-01-26T05:46:56.420Z,25.63
2023-01-26T05:49:22.929Z,24.67
2023-01-26T05:51:49.408Z,25.50
2023-01-26T05:54:15.926Z,23.33
2023-01-26T05:56:42.495Z,25.53
2023-01-26T05:59:09.039Z,25.70
2023-01-26T06:01:35.613Z,25.00
2023-01-26T06:04:02.391Z,26.87
2023-01-26T06:06:28.866Z,24.90
2023-01-26T06:08:55.326Z,22.57
2023-01-26T06:11:21.814Z,23.83
2023-01-26T06:13:48.813Z,26.00
2023-01-26T06:16:16.577Z,25.80
2023-01-26T06:18:43.100Z,25.67
2023-01-26T06:21:09.639Z,25.90
2023-01-26T06:23:36.162Z,22.93
2023-01-26T06:26:02.809Z,26.43
2023-01-26T06:28:30.868Z,24.43
2023-01-26T06:31:01.776Z,27.23
2023-01-26T06:33:28.410Z,24.20
2023-01-26T06:35:55.922Z,24.40
2023-01-26T06:38:22.443Z,24.53
2023-01-26T06:40:48.992Z,24.93
2023-01-26T06:43:15.462Z,25.87
2023-01-26T06:45:42.633Z,24.27
2023-01-26T06:48:09.099Z,25.93
2023-01-26T06:50:35.953Z,21.97
2023-01-26T06:53:04.932Z,24.13
2023-01-26T06:55:36.649Z,23.80
2023-01-26T06:58:03.222Z,25.30
2023-01-26T07:00:29.771Z,24.37
2023-01-26T07:02:56.263Z,20.90
2023-01-26T07:05:22.708Z,23.10
2023-01-26T07:07:49.246Z,23.27
2023-01-26T07:10:15.883Z,22.37
2023-01-26T07:12:44.523Z,25.40
2023-01-26T07:15:12.584Z,22.80
2023-01-26T07:17:39.941Z,23.20
2023-01-26T07:20:07.543Z,23.97
2023-01-26T07:22:34.001Z,24.67
2023-01-26T07:25:00.546Z,24.77
2023-01-26T07:27:26.998Z,22.17
2023-01-26T07:29:53.465Z,24.33
2023-01-26T07:32:19.920Z,23.43
2023-01-26T07:34:46.378Z,23.00
2023-01-26T07:37:12.805Z,23.63
2023-01-26T07:39:39.273Z,23.57
2023-01-26T07:42:05.903Z,23.77
2023-01-26T07:44:32.430Z,24.47
2023-01-26T07:46:59.393Z,24.20
2023-01-26T07:49:25.881Z,25.53
2023-01-26T07:51:54.004Z,26.77
2023-01-26T07:54:21.623Z,23.60
2023-01-26T07:56:52.852Z,23.70
2023-01-26T07:59:19.306Z,24.47
2023-01-26T08:01:46.545Z,24.23
2023-01-26T08:04:13.035Z,23.87
2023-01-26T08:06:39.484Z,25.27
2023-01-26T08:09:06.292Z,26.70
2023-01-26T08:11:32.837Z,24.43
2023-01-26T08:13:59.311Z,27.87
2023-01-26T08:16:25.980Z,24.80
2023-01-26T08:18:52.500Z,27.00
2023-01-26T08:21:19.642Z,24.83
2023-01-26T08:23:50.522Z,26.43
2023-01-26T08:26:20.972Z,23.93
2023-01-26T08:28:48.108Z,27.87
2023-01-26T08:31:19.744Z,24.87
2023-01-26T08:33:48.486Z,25.50
2023-01-26T08:36:15.579Z,26.83
2023-01-26T08:38:42.832Z,26.33
2023-01-26T08:41:09.974Z,27.07
2023-01-26T08:43:36.664Z,25.00
2023-01-26T08:46:03.576Z,26.50
2023-01-26T08:48:31.220Z,26.40
2023-01-26T08:51:00.231Z,35.37
2023-01-26T08:53:27.112Z,27.97
2023-01-26T08:55:53.585Z,28.43
2023-01-26T08:58:20.608Z,25.57
2023-01-26T09:00:47.075Z,27.87
2023-01-26T09:03:13.782Z,32.43
2023-01-26T09:05:40.677Z,31.40
2023-01-26T09:08:08.502Z,36.93
2023-01-26T09:10:37.573Z,31.47
2023-01-26T09:13:04.093Z,28.43
2023-01-26T09:15:30.593Z,33.97
2023-01-26T09:17:59.169Z,33.73
2023-01-26T09:20:27.070Z,28.10
2023-01-26T09:22:54.663Z,37.80
2023-01-26T09:25:21.177Z,39.80
2023-01-26T09:27:47.636Z,33.33
2023-01-26T09:30:14.540Z,32.07
2023-01-26T09:32:41.058Z,36.70
2023-01-26T09:35:14.295Z,40.17
2023-01-26T09:37:43.061Z,32.77
2023-01-26T09:40:19.709Z,33.83
2023-01-26T09:43:16.502Z,28.37
2023-01-26T09:46:27.673Z,34.50
2023-01-26T09:49:11.206Z,33.43
2023-01-26T09:51:40.129Z,32.87
2023-01-26T09:54:22.978Z,33.70
2023-01-26T09:56:49.491Z,35.00
2023-01-26T09:59:32.024Z,31.33
2023-01-26T10:02:23.668Z,32.90
2023-01-26T10:04:53.068Z,33.00
2023-01-26T10:07:19.635Z,30.30
2023-01-26T10:09:49.012Z,40.67
2023-01-26T10:12:28.256Z,32.63
2023-01-26T10:15:10.903Z,35.70
2023-01-26T10:17:40.480Z,35.53
2023-01-26T10:20:36.322Z,35.47
2023-01-26T10:23:10.467Z,76.03
2023-01-26T10:25:41.410Z,42.50
2023-01-26T10:28:35.198Z,42.53
2023-01-26T10:31:04.539Z,36.00
2023-01-26T10:33:36.163Z,35.73
2023-01-26T10:36:06.191Z,35.03
2023-01-26T10:38:32.602Z,35.70
2023-01-26T10:41:18.328Z,37.70
2023-01-26T10:44:02.785Z,36.97
2023-01-26T10:46:38.308Z,32.10
2023-01-26T10:49:19.962Z,36.73
2023-01-26T10:52:06.072Z,36.17
2023-01-26T10:54:35.404Z,32.83
2023-01-26T10:57:14.236Z,33.57
2023-01-26T10:59:46.176Z,31.07
2023-01-26T11:02:12.617Z,31.53
2023-01-26T11:04:39.684Z,31.23
2023-01-26T11:07:39.967Z,29.73
2023-01-26T11:10:27.101Z,31.73
2023-01-26T11:13:16.618Z,30.80
2023-01-26T11:16:14.620Z,29.80
2023-01-26T11:18:58.826Z,32.90
2023-01-26T11:21:47.838Z,28.33
2023-01-26T11:24:58.669Z,31.23
2023-01-26T11:27:41.209Z,28.63
2023-01-26T11:30:38.260Z,33.13
2023-01-26T11:33:07.523Z,31.00
2023-01-26T11:36:04.799Z,35.00
2023-01-26T11:38:42.121Z,30.77
2023-01-26T11:41:24.628Z,23.37
2023-01-26T11:43:58.906Z,23.07
2023-01-26T11:46:45.094Z,28.47
2023-01-26T11:49:26.863Z,22.53
2023-01-26T11:52:08.627Z,19.57
2023-01-26T11:54:57.464Z,19.47
2023-01-26T11:57:49.291Z,21.13
2023-01-26T12:00:30.473Z,18.87
2023-01-26T12:03:05.548Z,20.10
2023-01-26T12:05:42.397Z,15.43
2023-01-26T12:08:17.190Z,14.60
2023-01-26T12:11:21.683Z,15.07
2023-01-26T12:13:57.090Z,14.60
2023-01-26T12:16:36.508Z,18.53
2023-01-26T12:19:12.720Z,20.47
2023-01-26T12:21:46.368Z,18.57
2023-01-26T12:24:46.782Z,20.07
2023-01-26T12:27:14.498Z,19.43
2023-01-26T12:29:50.131Z,18.03
2023-01-26T12:32:16.984Z,18.67
2023-01-26T12:34:43.454Z,18.80
2023-01-26T12:37:20.433Z,18.13
2023-01-26T12:39:52.920Z,18.60
2023-01-26T12:42:26.026Z,14.80
2023-01-26T12:45:02.090Z,11.93
2023-01-26T12:47:44.035Z,15.77
2023-01-26T12:50:36.825Z,13.43
2023-01-26T12:53:20.025Z,13.73
2023-01-26T12:56:01.154Z,13.33
2023-01-26T12:58:31.824Z,14.07
2023-01-26T13:01:05.072Z,16.17
2023-01-26T13:03:35.244Z,14.83
2023-01-26T13:06:18.994Z,16.80
2023-01-26T13:08:57.567Z,19.53
2023-01-26T13:11:52.893Z,18.10
2023-01-26T13:14:39.094Z,11.57
2023-01-26T13:17:14.655Z,14.20
2023-01-26T13:19:44.172Z,12.97
2023-01-26T13:22:23.510Z,12.40
2023-01-26T13:25:00.053Z,13.30
2023-01-26T13:27:31.303Z,12.63
2023-01-26T13:29:57.890Z,11.93
2023-01-26T13:32:24.306Z,12.50
2023-01-26T13:34:58.980Z,12.10
2023-01-26T13:37:42.489Z,11.83
2023-01-26T13:40:33.388Z,12.17
2023-01-26T13:43:25.806Z,11.80
2023-01-26T13:46:03.095Z,9.23
2023-01-26T13:48:37.926Z,26.83
2023-01-26T13:51:04.913Z,11.13
2023-01-26T13:53:38.605Z,11.97
2023-01-26T13:56:06.757Z,13.07
2023-01-26T13:58:34.094Z,13.77
2023-01-26T14:01:05.260Z,12.23
2023-01-26T14:03:32.348Z,11.87
2023-01-26T14:06:09.047Z,11.27
2023-01-26T14:08:36.809Z,10.00
2023-01-26T14:11:05.779Z,9.87
2023-01-26T14:13:38.745Z,9.00
2023-01-26T14:16:06.883Z,8.23
2023-01-26T14:18:33.901Z,9.10
2023-01-26T14:21:04.128Z,9.23
2023-01-26T14:23:35.637Z,8.73
2023-01-26T14:26:07.244Z,8.63
2023-01-26T14:28:36.095Z,7.97
2023-01-26T14:31:23.671Z,7.63
2023-01-26T14:33:54.993Z,7.47
2023-01-26T14:36:21.568Z,8.03
2023-01-26T14:38:50.210Z,7.70
2023-01-26T14:41:20.343Z,7.50
2023-01-26T14:43:49.019Z,7.70
2023-01-26T14:46:18.724Z,7.20
2023-01-26T14:48:52.653Z,8.03
2023-01-26T14:51:24.150Z,7.40
2023-01-26T14:53:52.999Z,7.73
2023-01-26T14:56:20.864Z,8.03
2023-01-26T14:58:51.272Z,8.10
2023-01-26T15:01:22.356Z,7.97
2023-01-26T15:03:51.470Z,8.20
2023-01-26T15:06:20.678Z,8.30
2023-01-26T15:09:01.258Z,8.27
2023-01-26T15:11:51.554Z,6.70
2023-01-26T15:14:38.315Z,10.03
2023-01-26T15:17:05.739Z,7.30
2023-01-26T15:19:39.570Z,7.30
2023-01-26T15:22:24.595Z,7.13
2023-01-26T15:25:17.403Z,7.10
2023-01-26T15:27:49.650Z,7.97
2023-01-26T15:30:17.418Z,7.67
2023-01-26T15:32:44.527Z,7.40
2023-01-26T15:35:27.324Z,8.90
2023-01-26T15:38:13.345Z,9.37
2023-01-26T15:40:39.865Z,11.73
2023-01-26T15:43:27.640Z,11.50
2023-01-26T15:45:58.384Z,8.33
2023-01-26T15:48:25.403Z,7.83
2023-01-26T15:50:51.927Z,7.20
2023-01-26T15:53:21.107Z,8.10
2023-01-26T15:55:58.614Z,7.57
2023-01-26T15:58:25.721Z,6.87
2023-01-26T16:00:53.307Z,7.93
2023-01-26T16:03:22.332Z,7.87
2023-01-26T16:05:49.473Z,7.50
2023-01-26T16:08:16.874Z,6.57
2023-01-26T16:10:44.468Z,6.13
2023-01-26T16:13:12.352Z,5.63
2023-01-26T16:15:44.387Z,5.73
2023-01-26T16:18:11.690Z,6.70
2023-01-26T16:20:43.250Z,5.53
2023-01-26T16:23:20.716Z,6.70
2023-01-26T16:25:47.939Z,7.73
2023-01-26T16:28:14.927Z,6.53
2023-01-26T16:30:46.289Z,7.83
2023-01-26T16:33:15.005Z,10.00
2023-01-26T16:35:41.975Z,12.87
2023-01-26T16:38:14.083Z,13.60
2023-01-26T16:40:41.883Z,11.93
2023-01-26T16:43:24.112Z,10.10
2023-01-26T16:45:51.659Z,11.33
2023-01-26T16:48:18.242Z,10.07
2023-01-26T16:50:44.881Z,10.03
2023-01-26T16:53:22.620Z,13.10
2023-01-26T16:55:49.083Z,14.70
2023-01-26T16:58:15.541Z,12.57
2023-01-26T17:00:42.141Z,11.20
2023-01-26T17:03:11.917Z,10.13
2023-01-26T17:05:38.998Z,10.80
2023-01-26T17:08:05.766Z,10.23
2023-01-26T17:10:33.376Z,12.37
2023-01-26T17:13:00.677Z,15.13
2023-01-26T17:15:29.190Z,14.00
2023-01-26T17:17:57.050Z,10.93
2023-01-26T17:20:23.604Z,27.23
2023-01-26T17:22:50.091Z,14.97
2023-01-26T17:25:18.239Z,12.03
2023-01-26T17:27:46.422Z,15.83
2023-01-26T17:30:13.234Z,20.37
2023-01-26T17:32:41.919Z,14.13
2023-01-26T17:35:08.962Z,12.80
2023-01-26T17:37:35.805Z,11.77
2023-01-26T17:40:02.242Z,11.77
2023-01-26T17:42:30.083Z,11.53
2023-01-26T17:44:57.892Z,11.90
2023-01-26T17:47:24.627Z,13.53
2023-01-26T17:49:51.082Z,12.10
2023-01-26T17:52:18.351Z,11.00
2023-01-26T17:54:44.835Z,9.77
2023-01-26T17:57:11.935Z,9.33
2023-01-26T17:59:38.408Z,8.67
2023-01-26T18:02:04.936Z,7.80
2023-01-26T18:04:33.219Z,8.17
2023-01-26T18:07:01.578Z,6.37
2023-01-26T18:09:28.079Z,6.90
2023-01-26T18:11:54.518Z,6.60
2023-01-26T18:14:21.014Z,6.40
2023-01-26T18:16:48.451Z,7.07
2023-01-26T18:19:15.088Z,9.00
2023-01-26T18:21:41.571Z,5.53
2023-01-26T18:24:08.484Z,4.97
2023-01-26T18:26:36.732Z,7.03
2023-01-26T18:29:05.126Z,7.60
2023-01-26T18:31:33.974Z,6.80
2023-01-26T18:34:01.296Z,8.17
2023-01-26T18:36:28.440Z,6.40
2023-01-26T18:39:00.647Z,6.37
2023-01-26T18:41:30.392Z,6.43
2023-01-26T18:43:58.558Z,6.33
2023-01-26T18:46:27.136Z,6.73
2023-01-26T18:48:54.444Z,7.20
2023-01-26T18:51:22.714Z,5.40
2023-01-26T18:53:49.527Z,6.07
2023-01-26T18:56:17.151Z,6.20
2023-01-26T18:58:43.751Z,7.77
2023-01-26T19:01:15.701Z,5.20
2023-01-26T19:03:47.639Z,6.70
2023-01-26T19:06:19.727Z,8.17
2023-01-26T19:08:47.775Z,7.23
2023-01-26T19:11:15.902Z,8.43
2023-01-26T19:13:43.275Z,8.30
2023-01-26T19:16:11.183Z,8.57
2023-01-26T19:18:37.694Z,10.10
2023-01-26T19:21:04.888Z,9.70
2023-01-26T19:23:31.551Z,10.63
2023-01-26T19:25:58.033Z,11.23
2023-01-26T19:28:24.551Z,12.60
2023-01-26T19:30:52.421Z,11.37
2023-01-26T19:33:27.294Z,11.93
2023-01-26T19:35:57.896Z,11.63
2023-01-26T19:38:24.570Z,9.60
2023-01-26T19:40:53.048Z,11.40
2023-01-26T19:43:23.622Z,9.97
2023-01-26T19:45:55.038Z,11.20
2023-01-26T19:48:23.873Z,10.00
2023-01-26T19:51:03.942Z,8.00
2023-01-26T19:53:33.861Z,8.97
2023-01-26T19:56:08.526Z,8.50
2023-01-26T19:58:35.749Z,8.47
2023-01-26T20:01:05.743Z,8.23
2023-01-26T20:03:32.355Z,9.10
2023-01-26T20:05:58.996Z,8.50
2023-01-26T20:08:26.602Z,8.57
2023-01-26T20:10:53.414Z,7.70
2023-01-26T20:13:20.465Z,7.30
2023-01-26T20:15:46.993Z,6.40
2023-01-26T20:18:13.512Z,5.77
2023-01-26T20:20:39.991Z,5.87
2023-01-26T20:23:07.597Z,5.27
2023-01-26T20:25:36.543Z,5.43
2023-01-26T20:28:03.127Z,5.47
2023-01-26T20:30:29.679Z,4.33
2023-01-26T20:32:56.166Z,5.50
2023-01-26T20:35:22.700Z,3.63
2023-01-26T20:37:49.148Z,3.40
2023-01-26T20:40:15.929Z,3.40
2023-01-26T20:42:42.405Z,3.00
2023-01-26T20:45:09.504Z,2.90
2023-01-26T20:47:38.230Z,2.70
2023-01-26T20:50:05.492Z,3.00
2023-01-26T20:52:31.970Z,3.13
2023-01-26T20:54:58.541Z,3.07
2023-01-26T20:57:25.124Z,3.30
2023-01-26T20:59:51.591Z,2.70
2023-01-26T21:02:22.341Z,2.73
2023-01-26T21:04:48.902Z,2.50
2023-01-26T21:07:16.797Z,2.90
2023-01-26T21:09:43.267Z,2.40
2023-01-26T21:12:10.637Z,3.13
2023-01-26T21:14:37.087Z,2.50
2023-01-26T21:17:03.821Z,2.40
2023-01-26T21:19:30.506Z,1.90
2023-01-26T21:21:59.295Z,1.80
2023-01-26T21:24:27.185Z,2.23
2023-01-26T21:26:54.476Z,2.00
2023-01-26T21:29:21.957Z,2.00
2023-01-26T21:31:49.449Z,2.00
2023-01-26T21:34:16.708Z,1.90
2023-01-26T21:36:43.735Z,2.63
2023-01-26T21:39:13.776Z,2.30
2023-01-26T21:41:55.485Z,2.10
2023-01-26T21:44:24.450Z,2.50
2023-01-26T21:46:53.418Z,2.20
2023-01-26T21:49:20.341Z,1.80
2023-01-26T21:52:05.438Z,2.00
2023-01-26T21:54:32.364Z,2.27
2023-01-26T21:56:59.660Z,2.30
2023-01-26T21:59:26.592Z,1.80
2023-01-26T22:01:55.509Z,2.07
2023-01-26T22:04:24.420Z,1.90
2023-01-26T22:06:52.275Z,1.57
2023-01-26T22:09:19.470Z,1.80
2023-01-26T22:11:45.989Z,1.77
2023-01-26T22:14:24.965Z,1.70
2023-01-26T22:16:51.745Z,1.77
2023-01-26T22:19:18.449Z,1.80
2023-01-26T22:21:45.042Z,1.50
2023-01-26T22:24:13.135Z,1.30
2023-01-26T22:26:40.509Z,1.60
2023-01-26T22:29:07.395Z,1.50
2023-01-26T22:31:34.319Z,1.40
2023-01-26T22:34:02.087Z,1.70
2023-01-26T22:36:29.505Z,1.60
2023-01-26T22:38:56.440Z,1.80
2023-01-26T22:41:28.567Z,2.00
2023-01-26T22:43:57.189Z,1.80
2023-01-26T22:46:26.000Z,1.80
2023-01-26T22:48:56.194Z,1.80
2023-01-26T22:51:27.993Z,1.90
2023-01-26T22:53:55.083Z,1.60
2023-01-26T22:56:21.965Z,2.17
2023-01-26T22:58:58.071Z,1.60
2023-01-26T23:01:28.155Z,2.10
2023-01-26T23:03:55.339Z,1.90
2023-01-26T23:06:22.509Z,1.50
2023-01-26T23:08:49.071Z,2.00
2023-01-26T23:11:20.618Z,2.33
2023-01-26T23:13:48.957Z,1.70
2023-01-26T23:16:15.667Z,1.70
2023-01-26T23:18:42.448Z,1.70
2023-01-26T23:21:09.587Z,1.67
2023-01-26T23:23:36.273Z,1.60
2023-01-26T23:26:03.458Z,1.43
2023-01-26T23:28:32.636Z,1.60
2023-01-26T23:31:00.413Z,1.70
2023-01-26T23:33:29.852Z,1.50
2023-01-26T23:35:56.640Z,1.43
2023-01-26T23:38:24.703Z,1.70
2023-01-26T23:40:51.500Z,1.80
2023-01-26T23:43:18.868Z,1.60
2023-01-26T23:45:46.980Z,1.63
2023-01-26T23:48:13.733Z,1.70
2023-01-26T23:50:40.316Z,1.30
2023-01-26T23:53:07.308Z,1.10
2023-01-26T23:55:34.577Z,1.50
2023-01-26T23:58:01.092Z,1.60
